Startpagina
METAR-TAF:

METAR-TAF

Vliegvelden :

Flughafen Mönchengladbach

Mönchengladbach, Duitsland

breedte: 51-13-49N, lengte: 006-30-16E, hoogte: 38 m

Actueel weer

Dit bericht is 4 uur en het 15 minuten geleden gemaakt, om 19:20 UTC
Wind 4 kt uit het zuidoosten
Temperatuur 6°C
Vochtigheid 93%
Druk 1026 hPa
Zicht 10 km of meer
geen wolken onder 1500 m en geen cumulonimbus

METAR: EDLN 141920Z 14004KT CAVOK 06/05 Q1026

Tijdstip: 00:35 (23:35 UTC)

Verwachting

Dit bericht is 6 uur en het 35 minuten geleden gemaakt, om 17:00 UTC
Verwachting geldig van 14 om 18 UTC tot 15 om 03 UTC
Wind 6 kt uit het zuidoosten
Zicht 10 km of meer
geen wolken onder 1500 m en geen cumulonimbus
Wijzigt naar
van 14 om 23 UTC tot 15 om 02 UTC
Zicht: 4000 m
nevel

TAF: EDLN 141700Z 1418/1503 13006KT CAVOK BECMG 1423/1502 4000 BR

Waarnemingen en weersverwachtingen van meer dan 4000 vliegvelden (METAR en TAF).

De beschikbare stations zijn de gele en rode punten op de kaart.

Ga met uw muis naar het station om de naam te zien.

Klik dan om waarnemingen en weersverwachtingen te zien.

kaart wijzigen: klik op de groene knoppen met een zwart kruis om in te zoomen, op de groene knop met een streepje om uit te zoomen of op de groene pijlen voor aangrenzende kaarten.


METAR-TAF: